Time,TemperatureF,DewpointF,PressureIn,WindDirection,WindDirectionDegrees,WindSpeedMPH,WindSpeedGustMPH,Humidity,HourlyPrecipIn,Conditions,Clouds,dailyrainin,SoftwareType,DateUTC
2013-03-20 00:03:00,67.0,66.0,29.97,NW,323,0.0,4.0,96,99.99,,,-99.99,,2013-03-20 04:03:00,
2013-03-20 00:12:00,67.0,66.0,29.97,NW,323,0.0,4.0,96,99.99,,,-99.99,,2013-03-20 04:12:00,
2013-03-20 00:23:00,67.0,66.0,29.97,NNW,343,4.0,6.0,97,99.99,,,-99.99,,2013-03-20 04:23:00,
2013-03-20 00:32:00,66.0,66.0,29.98,North,356,0.0,3.0,100,99.99,,,-99.99,,2013-03-20 04:32:00,
2013-03-20 00:43:00,66.0,66.0,29.98,North,356,0.0,3.0,100,99.99,,,-99.99,,2013-03-20 04:43:00,
2013-03-20 00:52:00,66.0,66.0,29.98,WNW,298,3.0,4.0,100,99.99,,,-99.99,,2013-03-20 04:52:00,
2013-03-20 01:03:00,66.0,66.0,29.98,North,354,2.0,4.0,100,99.99,,,-99.99,,2013-03-20 05:03:00,
2013-03-20 01:12:00,66.0,66.0,29.98,NW,307,2.0,3.0,100,99.99,,,-99.99,,2013-03-20 05:12:00,
2013-03-20 01:23:00,66.0,66.0,29.98,NW,307,2.0,3.0,100,99.99,,,-99.99,,2013-03-20 05:23:00,
2013-03-20 01:32:00,66.0,66.0,29.98,WNW,300,4.0,6.0,100,99.99,,,-99.99,,2013-03-20 05:32:00,
2013-03-20 01:42:00,66.0,66.0,29.98,WNW,300,4.0,6.0,100,99.99,,,-99.99,,2013-03-20 05:42:00,
2013-03-20 01:52:00,67.0,67.0,29.97,WNW,288,4.0,7.0,100,99.99,,,-99.99,,2013-03-20 05:52:00,
2013-03-20 02:03:00,66.0,66.0,29.96,West,280,4.0,5.0,100,99.99,,,-99.99,,2013-03-20 06:03:00,
2013-03-20 02:12:00,66.0,66.0,29.96,West,280,4.0,5.0,100,99.99,,,-99.99,,2013-03-20 06:12:00,
2013-03-20 02:22:00,66.0,66.0,29.96,NW,308,5.0,7.0,100,99.99,,,-99.99,,2013-03-20 06:22:00,
2013-03-20 02:32:00,66.0,66.0,29.96,NNW,340,4.0,5.0,99,99.99,,,-99.99,,2013-03-20 06:32:00,
2013-03-20 02:42:00,66.0,66.0,29.96,NNW,340,4.0,5.0,99,99.99,,,-99.99,,2013-03-20 06:42:00,
2013-03-20 02:52:00,65.0,65.0,29.94,NW,318,2.0,4.0,100,99.99,,,-99.99,,2013-03-20 06:52:00,
2013-03-20 03:02:00,64.0,64.0,29.94,NNW,330,4.0,6.0,100,99.99,,,-99.99,,2013-03-20 07:02:00,
2013-03-20 03:12:00,64.0,64.0,29.94,NNW,330,4.0,6.0,100,99.99,,,-99.99,,2013-03-20 07:12:00,
2013-03-20 03:22:00,64.0,64.0,29.93,NNW,332,5.0,6.0,100,99.99,,,-99.99,,2013-03-20 07:22:00,
2013-03-20 03:32:00,63.0,63.0,29.93,NNW,338,4.0,6.0,100,99.99,,,-99.99,,2013-03-20 07:32:00,
2013-03-20 03:42:00,63.0,63.0,29.93,NNW,338,4.0,6.0,100,99.99,,,-99.99,,2013-03-20 07:42:00,
2013-03-20 03:52:00,63.0,63.0,29.93,NNW,338,4.0,6.0,100,99.99,,,-99.99,,2013-03-20 07:52:00,
2013-03-20 04:02:00,63.0,63.0,29.93,NNW,343,4.0,5.0,100,99.99,,,-99.99,,2013-03-20 08:02:00,
2013-03-20 04:12:00,63.0,63.0,29.93,NNW,343,4.0,5.0,100,99.99,,,-99.99,,2013-03-20 08:12:00,
2013-03-20 04:22:00,63.0,63.0,29.92,NNW,347,5.0,6.0,100,99.99,,,-99.99,,2013-03-20 08:22:00,
2013-03-20 04:32:00,62.0,62.0,29.92,North,350,3.0,5.0,100,99.99,,,-99.99,,2013-03-20 08:32:00,
2013-03-20 04:42:00,62.0,62.0,29.91,North,354,3.0,5.0,100,99.99,,,-99.99,,2013-03-20 08:42:00,
2013-03-20 04:52:00,62.0,62.0,29.91,North,354,3.0,5.0,100,99.99,,,-99.99,,2013-03-20 08:52:00,
2013-03-20 05:02:00,62.0,62.0,29.92,NNW,330,2.0,3.0,100,99.99,,,-99.99,,2013-03-20 09:02:00,
2013-03-20 05:12:00,62.0,62.0,29.92,NNW,330,2.0,3.0,100,99.99,,,-99.99,,2013-03-20 09:12:00,
2013-03-20 05:22:00,62.0,62.0,29.92,North,8,3.0,5.0,100,99.99,,,-99.99,,2013-03-20 09:22:00,
2013-03-20 05:33:00,63.0,63.0,29.91,North,8,3.0,4.0,100,99.99,,,-99.99,,2013-03-20 09:33:00,
2013-03-20 05:43:00,63.0,63.0,29.91,North,8,3.0,4.0,100,99.99,,,-99.99,,2013-03-20 09:43:00,
2013-03-20 05:52:00,63.0,63.0,29.91,NE,37,3.0,7.0,100,99.99,,,-99.99,,2013-03-20 09:52:00,
2013-03-20 06:03:00,65.0,65.0,29.91,ENE,73,4.0,6.0,100,99.99,,,-99.99,,2013-03-20 10:03:00,
2013-03-20 06:13:00,65.0,65.0,29.91,ENE,73,4.0,6.0,100,99.99,,,-99.99,,2013-03-20 10:13:00,
2013-03-20 06:23:00,65.0,65.0,29.92,NE,35,3.0,6.0,100,99.99,,,-99.99,,2013-03-20 10:23:00,
2013-03-20 06:33:00,65.0,65.0,29.93,ENE,63,5.0,7.0,100,99.99,,,-99.99,,2013-03-20 10:33:00,
2013-03-20 06:42:00,65.0,65.0,29.93,ENE,63,5.0,7.0,100,99.99,,,-99.99,,2013-03-20 10:42:00,
2013-03-20 06:52:00,65.0,65.0,29.94,NE,48,4.0,8.0,100,99.99,,,-99.99,,2013-03-20 10:52:00,
2013-03-20 07:03:00,66.0,66.0,29.93,ENE,75,2.0,3.0,100,99.99,,,-99.99,,2013-03-20 11:03:00,
2013-03-20 07:12:00,66.0,66.0,29.93,ENE,75,2.0,3.0,100,99.99,,,-99.99,,2013-03-20 11:12:00,
2013-03-20 07:22:00,66.0,66.0,29.94,ENE,70,2.0,4.0,100,99.99,,,-99.99,,2013-03-20 11:22:00,
2013-03-20 07:32:00,65.0,65.0,29.96,NE,41,0.0,2.0,100,99.99,,,-99.99,,2013-03-20 11:32:00,
2013-03-20 07:42:00,65.0,65.0,29.96,NE,41,0.0,2.0,100,99.99,,,-99.99,,2013-03-20 11:42:00,
2013-03-20 07:52:00,65.0,65.0,29.95,SSW,193,1.0,5.0,100,99.99,,,-99.99,,2013-03-20 11:52:00,
2013-03-20 08:02:00,65.0,65.0,29.95,West,260,4.0,6.0,100,99.99,,,-99.99,,2013-03-20 12:02:00,
2013-03-20 08:12:00,65.0,65.0,29.95,West,260,4.0,6.0,100,99.99,,,-99.99,,2013-03-20 12:12:00,
2013-03-20 08:22:00,66.0,66.0,29.93,ENE,62,4.0,8.0,100,99.99,,,-99.99,,2013-03-20 12:22:00,
2013-03-20 08:32:00,66.0,66.0,29.94,South,173,8.0,15.0,100,99.99,,,-99.99,,2013-03-20 12:32:00,
2013-03-20 08:42:00,66.0,66.0,29.94,South,173,8.0,15.0,100,99.99,,,-99.99,,2013-03-20 12:42:00,
2013-03-20 08:52:00,66.0,66.0,29.94,South,169,7.0,11.0,100,99.99,,,-99.99,,2013-03-20 12:52:00,
2013-03-20 09:03:00,66.0,66.0,29.93,South,173,7.0,9.0,100,99.99,,,-99.99,,2013-03-20 13:03:00,
2013-03-20 09:12:00,66.0,66.0,29.93,South,173,7.0,9.0,100,99.99,,,-99.99,,2013-03-20 13:12:00,
2013-03-20 09:22:00,66.0,66.0,29.94,SSE,159,7.0,10.0,100,99.99,,,-99.99,,2013-03-20 13:22:00,
2013-03-20 09:32:00,66.0,66.0,29.94,NE,48,4.0,6.0,100,99.99,,,-99.99,,2013-03-20 13:32:00,
2013-03-20 09:42:00,66.0,66.0,29.94,NE,48,4.0,6.0,100,99.99,,,-99.99,,2013-03-20 13:42:00,
2013-03-20 09:52:00,66.0,66.0,29.93,East,94,3.0,7.0,100,99.99,,,-99.99,,2013-03-20 13:52:00,
2013-03-20 10:03:00,66.0,66.0,29.93,East,94,3.0,7.0,100,99.99,,,-99.99,,2013-03-20 14:03:00,
2013-03-20 10:12:00,66.0,66.0,29.93,East,94,3.0,7.0,100,99.99,,,-99.99,,2013-03-20 14:12:00,
2013-03-20 10:23:00,67.0,67.0,29.95,NNE,30,5.0,7.0,100,99.99,,,-99.99,,2013-03-20 14:23:00,
2013-03-20 10:34:00,68.0,68.0,29.95,SE,141,2.0,6.0,100,99.99,,,-99.99,,2013-03-20 14:34:00,
2013-03-20 10:42:00,68.0,68.0,29.95,SE,141,2.0,6.0,100,99.99,,,-99.99,,2013-03-20 14:42:00,
2013-03-20 10:52:00,68.0,68.0,29.95,SSE,165,8.0,11.0,100,99.99,,,-99.99,,2013-03-20 14:52:00,
2013-03-20 11:03:00,68.0,68.0,29.96,SSE,150,4.0,6.0,100,99.99,,,-99.99,,2013-03-20 15:03:00,
2013-03-20 11:12:00,69.0,69.0,29.96,SSE,153,3.0,6.0,100,99.99,,,-99.99,,2013-03-20 15:12:00,
2013-03-20 11:22:00,69.0,69.0,29.96,SSE,153,3.0,6.0,100,99.99,,,-99.99,,2013-03-20 15:22:00,
2013-03-20 11:33:00,69.0,69.0,29.96,South,176,4.0,6.0,100,99.99,,,-99.99,,2013-03-20 15:33:00,
2013-03-20 11:43:00,69.0,69.0,29.96,South,176,4.0,6.0,100,99.99,,,-99.99,,2013-03-20 15:43:00,
2013-03-20 11:52:00,70.0,70.0,29.95,SSE,148,3.0,4.0,99,99.99,,,-99.99,,2013-03-20 15:52:00,
2013-03-20 12:03:00,70.0,69.0,29.95,South,170,1.0,3.0,97,99.99,,,-99.99,,2013-03-20 16:03:00,
2013-03-20 12:12:00,70.0,69.0,29.95,South,170,1.0,3.0,97,99.99,,,-99.99,,2013-03-20 16:12:00,
2013-03-20 12:23:00,69.0,68.0,29.95,West,260,1.0,4.0,96,99.99,,,-99.99,,2013-03-20 16:23:00,
2013-03-20 12:33:00,70.0,69.0,29.94,NW,309,1.0,3.0,96,99.99,,,-99.99,,2013-03-20 16:33:00,
2013-03-20 12:43:00,70.0,69.0,29.94,NW,309,1.0,3.0,96,99.99,,,-99.99,,2013-03-20 16:43:00,
2013-03-20 12:53:00,70.0,68.0,29.94,West,259,4.0,6.0,95,99.99,,,-99.99,,2013-03-20 16:53:00,
2013-03-20 13:03:00,71.0,69.0,29.93,West,277,4.0,7.0,93,99.99,,,-99.99,,2013-03-20 17:03:00,
2013-03-20 13:12:00,71.0,69.0,29.93,West,277,4.0,7.0,93,99.99,,,-99.99,,2013-03-20 17:12:00,
2013-03-20 13:22:00,72.0,68.0,29.93,NW,304,4.0,7.0,87,99.99,,,-99.99,,2013-03-20 17:22:00,
2013-03-20 13:32:00,72.0,67.0,29.92,West,276,4.0,7.0,83,99.99,,,-99.99,,2013-03-20 17:32:00,
2013-03-20 13:42:00,72.0,67.0,29.92,West,276,4.0,7.0,83,99.99,,,-99.99,,2013-03-20 17:42:00,
2013-03-20 13:53:00,72.0,65.0,29.91,West,276,4.0,7.0,79,99.99,,,-99.99,,2013-03-20 17:53:00,
2013-03-20 14:02:00,73.0,63.0,29.91,WNW,290,7.0,12.0,71,99.99,,,-99.99,,2013-03-20 18:02:00,
2013-03-20 14:12:00,73.0,63.0,29.91,WNW,290,7.0,12.0,71,99.99,,,-99.99,,2013-03-20 18:12:00,
2013-03-20 14:22:00,73.0,63.0,29.90,West,281,8.0,14.0,71,99.99,,,-99.99,,2013-03-20 18:22:00,
2013-03-20 14:33:00,72.0,62.0,29.90,WSW,250,9.0,14.0,71,99.99,,,-99.99,,2013-03-20 18:33:00,
2013-03-20 14:42:00,72.0,62.0,29.90,WSW,250,9.0,14.0,71,99.99,,,-99.99,,2013-03-20 18:42:00,
2013-03-20 14:53:00,72.0,62.0,29.88,West,267,6.0,10.0,72,99.99,,,-99.99,,2013-03-20 18:53:00,
2013-03-20 15:02:00,73.0,63.0,29.87,West,277,7.0,12.0,71,99.99,,,-99.99,,2013-03-20 19:02:00,
2013-03-20 15:12:00,73.0,63.0,29.87,West,277,7.0,12.0,71,99.99,,,-99.99,,2013-03-20 19:12:00,
2013-03-20 15:22:00,73.0,63.0,29.86,WNW,293,8.0,13.0,70,99.99,,,-99.99,,2013-03-20 19:22:00,
2013-03-20 15:32:00,73.0,62.0,29.86,WNW,294,10.0,18.0,68,99.99,,,-99.99,,2013-03-20 19:32:00,
2013-03-20 15:42:00,73.0,62.0,29.86,WNW,294,10.0,18.0,68,99.99,,,-99.99,,2013-03-20 19:42:00,
2013-03-20 15:52:00,73.0,62.0,29.85,West,274,9.0,13.0,69,99.99,,,-99.99,,2013-03-20 19:52:00,
2013-03-20 16:02:00,73.0,62.0,29.85,West,266,8.0,16.0,68,99.99,,,-99.99,,2013-03-20 20:02:00,
2013-03-20 16:13:00,73.0,62.0,29.85,West,266,8.0,16.0,68,99.99,,,-99.99,,2013-03-20 20:13:00,
2013-03-20 16:22:00,74.0,62.0,29.85,WNW,297,8.0,15.0,66,99.99,,,-99.99,,2013-03-20 20:22:00,
2013-03-20 16:32:00,74.0,61.0,29.84,West,266,10.0,17.0,64,99.99,,,-99.99,,2013-03-20 20:32:00,
2013-03-20 16:42:00,74.0,61.0,29.84,West,266,10.0,17.0,64,99.99,,,-99.99,,2013-03-20 20:42:00,
2013-03-20 16:53:00,73.0,60.0,29.83,NW,304,8.0,12.0,63,99.99,,,-99.99,,2013-03-20 20:53:00,
2013-03-20 17:02:00,73.0,61.0,29.82,West,270,3.0,5.0,65,99.99,,,-99.99,,2013-03-20 21:02:00,
2013-03-20 17:12:00,73.0,61.0,29.82,West,270,3.0,5.0,65,99.99,,,-99.99,,2013-03-20 21:12:00,
2013-03-20 17:22:00,73.0,61.0,29.82,West,277,6.0,9.0,66,99.99,,,-99.99,,2013-03-20 21:22:00,
2013-03-20 17:33:00,73.0,61.0,29.83,West,273,7.0,12.0,65,99.99,,,-99.99,,2013-03-20 21:33:00,
2013-03-20 17:42:00,73.0,61.0,29.83,West,273,7.0,12.0,65,99.99,,,-99.99,,2013-03-20 21:42:00,
2013-03-20 17:52:00,72.0,61.0,29.82,NW,304,6.0,10.0,68,99.99,,,-99.99,,2013-03-20 21:52:00,
2013-03-20 18:03:00,72.0,61.0,29.82,West,264,6.0,10.0,68,99.99,,,-99.99,,2013-03-20 22:03:00,
2013-03-20 18:13:00,72.0,61.0,29.82,West,264,6.0,10.0,68,99.99,,,-99.99,,2013-03-20 22:13:00,
2013-03-20 18:23:00,72.0,61.0,29.83,West,267,5.0,8.0,69,99.99,,,-99.99,,2013-03-20 22:23:00,
2013-03-20 18:33:00,71.0,60.0,29.83,West,262,6.0,9.0,68,99.99,,,-99.99,,2013-03-20 22:33:00,
2013-03-20 18:42:00,71.0,60.0,29.83,West,262,6.0,9.0,68,99.99,,,-99.99,,2013-03-20 22:42:00,
2013-03-20 18:52:00,71.0,59.0,29.84,West,266,8.0,14.0,67,99.99,,,-99.99,,2013-03-20 22:52:00,
2013-03-20 19:03:00,71.0,59.0,29.86,WSW,243,11.0,19.0,66,99.99,,,-99.99,,2013-03-20 23:03:00,
2013-03-20 19:12:00,71.0,59.0,29.86,WSW,243,11.0,19.0,66,99.99,,,-99.99,,2013-03-20 23:12:00,
2013-03-20 19:22:00,71.0,59.0,29.86,WSW,243,11.0,19.0,66,99.99,,,-99.99,,2013-03-20 23:22:00,
2013-03-20 19:32:00,67.0,62.0,29.89,West,270,15.0,29.0,83,99.99,,,-99.99,,2013-03-20 23:32:00,
2013-03-20 19:42:00,67.0,62.0,29.89,West,270,15.0,29.0,83,99.99,,,-99.99,,2013-03-20 23:42:00,
2013-03-20 19:53:00,66.0,63.0,29.89,West,263,13.0,20.0,90,99.99,,,-99.99,,2013-03-20 23:53:00,
2013-03-20 20:03:00,66.0,63.0,29.89,West,263,13.0,20.0,90,99.99,,,-99.99,,2013-03-21 00:03:00,
2013-03-20 20:12:00,66.0,63.0,29.89,West,263,13.0,20.0,90,99.99,,,-99.99,,2013-03-21 00:12:00,
2013-03-20 20:23:00,66.0,63.0,29.89,West,263,13.0,20.0,90,99.99,,,-99.99,,2013-03-21 00:23:00,
2013-03-20 20:33:00,65.0,65.0,29.90,West,280,7.0,11.0,100,99.99,,,-99.99,,2013-03-21 00:33:00,
2013-03-20 20:42:00,65.0,65.0,29.90,West,280,7.0,11.0,100,99.99,,,-99.99,,2013-03-21 00:42:00,
2013-03-20 20:53:00,65.0,65.0,29.89,WNW,300,5.0,10.0,100,99.99,,,-99.99,,2013-03-21 00:53:00,
2013-03-20 21:02:00,65.0,65.0,29.89,WNW,300,5.0,10.0,100,99.99,,,-99.99,,2013-03-21 01:02:00,
2013-03-20 21:12:00,65.0,65.0,29.89,WNW,300,5.0,10.0,100,99.99,,,-99.99,,2013-03-21 01:12:00,
2013-03-20 21:22:00,65.0,65.0,29.90,West,277,8.0,15.0,100,99.99,,,-99.99,,2013-03-21 01:22:00,
2013-03-20 21:33:00,65.0,65.0,29.88,NW,307,6.0,9.0,100,99.99,,,-99.99,,2013-03-21 01:33:00,
2013-03-20 21:42:00,65.0,65.0,29.88,NW,307,6.0,9.0,100,99.99,,,-99.99,,2013-03-21 01:42:00,
2013-03-20 21:52:00,65.0,65.0,29.88,WNW,291,6.0,8.0,100,99.99,,,-99.99,,2013-03-21 01:52:00,
2013-03-20 22:02:00,65.0,65.0,29.88,WNW,294,5.0,8.0,100,99.99,,,-99.99,,2013-03-21 02:02:00,
2013-03-20 22:12:00,65.0,65.0,29.88,WNW,294,5.0,8.0,100,99.99,,,-99.99,,2013-03-21 02:12:00,
2013-03-20 22:22:00,64.0,64.0,29.88,West,270,4.0,8.0,100,99.99,,,-99.99,,2013-03-21 02:22:00,
2013-03-20 22:33:00,64.0,64.0,29.89,WNW,284,5.0,8.0,100,99.99,,,-99.99,,2013-03-21 02:33:00,
2013-03-20 22:42:00,64.0,64.0,29.89,WNW,284,5.0,8.0,100,99.99,,,-99.99,,2013-03-21 02:42:00,
2013-03-20 22:52:00,64.0,64.0,29.89,WNW,284,5.0,8.0,100,99.99,,,-99.99,,2013-03-21 02:52:00,
2013-03-20 23:02:00,63.0,63.0,29.89,WNW,284,3.0,6.0,100,99.99,,,-99.99,,2013-03-21 03:02:00,
2013-03-20 23:12:00,63.0,63.0,29.89,WNW,284,3.0,6.0,100,99.99,,,-99.99,,2013-03-21 03:12:00,
2013-03-20 23:22:00,63.0,63.0,29.89,WNW,284,3.0,6.0,100,99.99,,,-99.99,,2013-03-21 03:22:00,
2013-03-20 23:33:00,63.0,63.0,29.88,WNW,300,2.0,4.0,100,99.99,,,-99.99,,2013-03-21 03:33:00,
2013-03-20 23:43:00,63.0,63.0,29.88,WNW,300,2.0,4.0,100,99.99,,,-99.99,,2013-03-21 03:43:00,
2013-03-20 23:53:00,63.0,63.0,29.87,WNW,283,0.0,2.0,100,99.99,,,-99.99,,2013-03-21 03:53:00,